Time;durP1;ratioP1;P1;durP2;ratioP2;P2;SDS_P1;SDS_P2;PMS_P1;PMS_P2;Temp;Humidity;BMP_temperature;BMP_pressure;BME280_temperature;BME280_humidity;BME280_pressure;Samples;Min_cycle;Max_cycle;Signal;HPM_P1;HPM_P2
2023/12/21 00:01:39;;;;;;;;;;;;;;;21.61;38.36;100470.44;5029316;28;19914;-49
2023/12/21 00:04:04;;;;;;;;;;;;;;;21.57;38.23;100461.88;5062048;28;19957;-47
2023/12/21 00:06:30;;;;;;;;;;;;;;;21.56;38.39;100452.09;5009246;28;20433;-50
2023/12/21 00:08:55;;;;;;;;;;;;;;;21.56;38.54;100452.09;5014244;28;19922;-50
2023/12/21 00:11:20;;;;;;;;;;;;;;;21.55;38.49;100445.00;5083504;28;19990;-50
2023/12/21 00:13:45;;;;;;;;;;;;;;;21.54;38.30;100442.50;5014470;28;19920;-48
2023/12/21 00:16:11;;;;;;;;;;;;;;;21.53;38.37;100438.13;5016986;28;19912;-48
2023/12/21 00:18:36;;;;;;;;;;;;;;;21.51;38.64;100446.44;5032048;28;19924;-48
2023/12/21 00:21:01;;;;;;;;;;;;;;;21.50;38.44;100428.53;5009765;28;19920;-47
2023/12/21 00:23:26;;;;;;;;;;;;;;;21.50;38.72;100430.41;5009713;28;19950;-47
2023/12/21 00:25:51;;;;;;;;;;;;;;;21.48;38.58;100427.06;5048686;28;19916;-50
2023/12/21 00:28:17;;;;;;;;;;;;;;;21.45;38.69;100412.03;5024174;28;19980;-50
2023/12/21 00:30:42;;;;;;;;;;;;;;;21.44;38.47;100416.63;5018775;28;19974;-51
2023/12/21 00:33:07;;;;;;;;;;;;;;;21.44;38.45;100418.50;5019616;28;19923;-50
2023/12/21 00:35:32;;;;;;;;;;;;;;;21.42;38.50;100417.88;5037067;28;19912;-50
2023/12/21 00:37:58;;;;;;;;;;;;;;;21.40;38.71;100414.50;5018269;28;19963;-48
2023/12/21 00:40:23;;;;;;;;;;;;;;;21.39;38.64;100404.72;5045311;28;19913;-50
2023/12/21 00:42:48;;;;;;;;;;;;;;;21.37;38.77;100396.81;5033257;28;19918;-45
2023/12/21 00:45:13;;;;;;;;;;;;;;;21.36;39.03;100397.00;5014897;28;19921;-47
2023/12/21 00:47:39;;;;;;;;;;;;;;;21.35;38.89;100382.66;5024902;28;19947;-51
2023/12/21 00:50:05;;;;;;;;;;;;;;;21.33;39.00;100381.19;5011114;28;19916;-51
2023/12/21 00:52:30;;;;;;;;;;;;;;;21.32;38.84;100364.09;5028372;28;19935;-47
2023/12/21 00:54:55;;;;;;;;;;;;;;;21.30;38.73;100366.16;5028775;28;20448;-49
2023/12/21 00:57:20;;;;;;;;;;;;;;;21.29;38.76;100367.19;5027279;28;19921;-50
2023/12/21 00:59:45;;;;;;;;;;;;;;;21.27;39.07;100369.25;5017866;28;19921;-51
2023/12/21 01:02:11;;;;;;;;;;;;;;;21.26;38.94;100356.78;5009503;28;19914;-50
2023/12/21 01:04:36;;;;;;;;;;;;;;;21.25;39.00;100347.00;5032178;28;19978;-48
2023/12/21 01:07:01;;;;;;;;;;;;;;;21.24;38.95;100331.81;5063600;28;19930;-49
2023/12/21 01:09:26;;;;;;;;;;;;;;;21.23;39.15;100330.13;5062294;28;19921;-48
2023/12/21 01:11:52;;;;;;;;;;;;;;;21.20;38.95;100328.66;5036939;28;20430;-50
2023/12/21 01:14:17;;;;;;;;;;;;;;;21.19;38.97;100324.28;5085823;28;19912;-50
2023/12/21 01:16:42;;;;;;;;;;;;;;;21.18;38.92;100330.72;5013847;28;19914;-49
2023/12/21 01:19:07;;;;;;;;;;;;;;;21.18;39.19;100327.19;5032212;28;20336;-48
2023/12/21 01:21:32;;;;;;;;;;;;;;;21.16;39.24;100313.88;5034456;28;19928;-48
2023/12/21 01:23:58;;;;;;;;;;;;;;;21.15;39.26;100309.50;5019565;28;19939;-49
2023/12/21 01:26:23;;;;;;;;;;;;;;;21.13;39.37;100295.34;5031983;28;19928;-51
2023/12/21 01:28:48;;;;;;;;;;;;;;;21.12;39.03;100282.84;5037542;28;19931;-46
2023/12/21 01:31:13;;;;;;;;;;;;;;;21.11;39.34;100294.72;5010143;28;19914;-46
2023/12/21 01:33:39;;;;;;;;;;;;;;;21.10;39.35;100295.72;5018547;28;19945;-48
2023/12/21 01:36:10;;;;;;;;;;;;;;;21.10;39.32;100300.28;5011090;28;19912;-49
2023/12/21 01:38:35;;;;;;;;;;;;;;;21.08;39.14;100300.50;5042464;28;19914;-51
2023/12/21 01:41:00;;;;;;;;;;;;;;;21.06;39.50;100301.72;5035262;28;19914;-50
2023/12/21 01:43:25;;;;;;;;;;;;;;;21.05;39.26;100294.66;5068449;28;19932;-48
2023/12/21 01:45:51;;;;;;;;;;;;;;;21.04;39.53;100287.59;5009611;28;20275;-49
2023/12/21 01:48:16;;;;;;;;;;;;;;;21.03;39.18;100289.47;5067494;28;19918;-47
2023/12/21 01:50:41;;;;;;;;;;;;;;;21.02;39.31;100289.63;5030943;28;19916;-50
2023/12/21 01:53:09;;;;;;;;;;;;;;;21.01;39.20;100282.56;5046007;28;19928;-47
2023/12/21 01:55:34;;;;;;;;;;;;;;;20.99;39.51;100293.59;5063155;28;19913;-48
2023/12/21 01:57:59;;;;;;;;;;;;;;;20.99;39.52;100284.66;5058388;28;19924;-50
2023/12/21 02:00:24;;;;;;;;;;;;;;;20.95;39.26;100285.03;5027143;28;19968;-49
2023/12/21 02:02:50;;;;;;;;;;;;;;;20.95;39.61;100293.13;5068588;28;19923;-47
2023/12/21 02:05:15;;;;;;;;;;;;;;;20.95;39.67;100289.59;5073196;28;20007;-49
2023/12/21 02:07:40;;;;;;;;;;;;;;;20.94;39.65;100282.50;5031543;28;19925;-47
2023/12/21 02:10:06;;;;;;;;;;;;;;;20.93;39.41;100267.34;5011953;28;19928;-47
2023/12/21 02:12:31;;;;;;;;;;;;;;;20.91;39.68;100251.34;5028420;28;19913;-48
2023/12/21 02:14:56;;;;;;;;;;;;;;;20.90;39.68;100255.06;5068726;28;19971;-49
2023/12/21 02:17:22;;;;;;;;;;;;;;;20.90;39.89;100240.72;5072042;28;19921;-48
2023/12/21 02:19:47;;;;;;;;;;;;;;;20.88;39.76;100227.41;5079629;28;20414;-45
2023/12/21 02:22:13;;;;;;;;;;;;;;;20.87;39.92;100219.50;5032463;28;19913;-49
2023/12/21 02:24:38;;;;;;;;;;;;;;;20.86;39.59;100228.66;5017962;28;19979;-48
2023/12/21 02:27:04;;;;;;;;;;;;;;;20.85;39.68;100222.38;5071928;28;19913;-46
2023/12/21 02:29:29;;;;;;;;;;;;;;;20.84;39.59;100218.03;5044725;28;20388;-48
2023/12/21 02:31:54;;;;;;;;;;;;;;;20.82;39.85;100222.81;5045156;28;19920;-48
2023/12/21 02:34:19;;;;;;;;;;;;;;;20.81;39.72;100218.41;5038242;28;19924;-48
2023/12/21 02:36:44;;;;;;;;;;;;;;;20.82;39.83;100216.56;5034801;28;19912;-48
2023/12/21 02:39:09;;;;;;;;;;;;;;;20.80;39.99;100221.31;5026317;28;19935;-49
2023/12/21 02:41:35;;;;;;;;;;;;;;;20.79;39.83;100222.34;5012039;28;19922;-46
2023/12/21 02:44:00;;;;;;;;;;;;;;;20.79;39.79;100200.75;5034286;28;19939;-46
2023/12/21 02:46:26;;;;;;;;;;;;;;;20.76;39.98;100196.56;5059582;28;20363;-47
2023/12/21 02:48:51;;;;;;;;;;;;;;;20.75;39.98;100200.31;5051950;28;19944;-48
2023/12/21 02:51:17;;;;;;;;;;;;;;;20.75;40.04;100194.06;5041840;28;19961;-47
2023/12/21 02:53:42;;;;;;;;;;;;;;;20.72;40.00;100182.59;5029368;28;19916;-47
2023/12/21 02:56:07;;;;;;;;;;;;;;;20.72;40.01;100173.66;5011965;28;19922;-46
2023/12/21 02:58:32;;;;;;;;;;;;;;;20.71;39.87;100169.31;5018237;28;19917;-46
2023/12/21 03:00:57;;;;;;;;;;;;;;;20.69;40.03;100171.38;5017410;28;19997;-44
2023/12/21 03:03:22;;;;;;;;;;;;;;;20.67;40.17;100168.88;5014374;28;19925;-46
2023/12/21 03:05:48;;;;;;;;;;;;;;;20.66;39.99;100155.56;5017531;28;19920;-47
2023/12/21 03:08:13;;;;;;;;;;;;;;;20.66;40.36;100142.06;5036855;28;19917;-44
2023/12/21 03:10:38;;;;;;;;;;;;;;;20.66;40.15;100133.97;5021849;28;19928;-46
2023/12/21 03:13:04;;;;;;;;;;;;;;;20.64;40.25;100125.22;5016420;28;19912;-48
2023/12/21 03:15:29;;;;;;;;;;;;;;;20.63;40.26;100118.16;5028737;28;19920;-45
2023/12/21 03:17:54;;;;;;;;;;;;;;;20.62;40.31;100101.09;5031362;28;19951;-44
2023/12/21 03:20:19;;;;;;;;;;;;;;;20.61;40.11;100106.72;5019539;28;19912;-44
2023/12/21 03:22:44;;;;;;;;;;;;;;;20.60;40.26;100097.78;5033600;28;19919;-45
2023/12/21 03:25:09;;;;;;;;;;;;;;;20.59;39.96;100104.19;5026748;28;19921;-46
2023/12/21 03:27:36;;;;;;;;;;;;;;;20.58;40.30;100099.00;5009653;28;19983;-49
2023/12/21 03:30:01;;;;;;;;;;;;;;;20.57;40.34;100086.53;5017817;28;19918;-46
2023/12/21 03:32:27;;;;;;;;;;;;;;;20.56;40.27;100084.84;5033585;28;19985;-48
2023/12/21 03:34:52;;;;;;;;;;;;;;;20.55;40.33;100078.63;5015748;28;19914;-46
2023/12/21 03:37:17;;;;;;;;;;;;;;;20.54;40.47;100081.53;5027218;28;19923;-46
2023/12/21 03:39:42;;;;;;;;;;;;;;;20.54;40.37;100078.84;5052671;28;19918;-46
2023/12/21 03:42:07;;;;;;;;;;;;;;;20.52;40.30;100080.88;5030520;28;19917;-45
2023/12/21 03:44:33;;;;;;;;;;;;;;;20.51;40.09;100085.44;5035623;28;19925;-47
2023/12/21 03:46:58;;;;;;;;;;;;;;;20.51;40.38;100063.03;5039814;28;20411;-50
2023/12/21 03:49:25;;;;;;;;;;;;;;;20.50;40.50;100066.75;5023529;28;19920;-49
2023/12/21 03:51:51;;;;;;;;;;;;;;;20.49;40.34;100073.19;5016788;28;19913;-46
2023/12/21 03:54:16;;;;;;;;;;;;;;;20.48;40.62;100066.97;5065423;28;20404;-50
2023/12/21 03:56:41;;;;;;;;;;;;;;;20.47;40.53;100038.25;5018454;28;19929;-49
2023/12/21 03:59:06;;;;;;;;;;;;;;;20.46;40.27;100023.91;5017341;28;19943;-49
2023/12/21 04:01:32;;;;;;;;;;;;;;;20.45;40.42;100033.06;5023494;28;19914;-49
2023/12/21 04:03:57;;;;;;;;;;;;;;;20.44;40.55;100017.91;5023256;28;19910;-51
2023/12/21 04:06:22;;;;;;;;;;;;;;;20.42;40.66;99987.56;5009385;28;20117;-48
2023/12/21 04:08:47;;;;;;;;;;;;;;;20.40;40.56;99973.44;5025691;28;20337;-49
2023/12/21 04:11:13;;;;;;;;;;;;;;;20.39;40.63;99970.91;5033315;28;19912;-49
2023/12/21 04:13:38;;;;;;;;;;;;;;;20.39;40.67;99968.22;5048677;28;19990;-47
2023/12/21 04:16:05;;;;;;;;;;;;;;;20.37;40.60;99976.53;5049356;28;20308;-49
2023/12/21 04:18:30;;;;;;;;;;;;;;;20.36;40.48;99966.75;5032996;28;19981;-49
2023/12/21 04:20:55;;;;;;;;;;;;;;;20.34;40.36;99958.03;5007478;28;19918;-50
2023/12/21 04:23:21;;;;;;;;;;;;;;;20.33;40.40;99937.47;5014623;28;19914;-50
2023/12/21 04:25:46;;;;;;;;;;;;;;;20.32;40.70;99934.97;5085687;28;19921;-50
2023/12/21 04:28:11;;;;;;;;;;;;;;;20.31;40.54;99930.63;5038391;28;19914;-50
2023/12/21 04:30:36;;;;;;;;;;;;;;;20.30;40.53;99929.75;5023446;28;19927;-45
2023/12/21 04:33:02;;;;;;;;;;;;;;;20.30;40.58;99920.84;5030407;28;19913;-46
2023/12/21 04:35:27;;;;;;;;;;;;;;;20.28;40.56;99922.91;5079884;28;20035;-50
2023/12/21 04:37:52;;;;;;;;;;;;;;;20.28;40.56;99906.72;5021227;28;20438;-48
2023/12/21 04:40:17;;;;;;;;;;;;;;;20.27;40.64;99883.47;5014933;28;19925;-48
2023/12/21 04:42:44;;;;;;;;;;;;;;;20.26;40.54;99862.88;5020877;28;20010;-49
2023/12/21 04:45:10;;;;;;;;;;;;;;;20.23;40.63;99864.97;5009999;28;19917;-50
2023/12/21 04:47:35;;;;;;;;;;;;;;;20.22;40.93;99852.53;5020743;28;19926;-51
2023/12/21 04:50:00;;;;;;;;;;;;;;;20.22;40.86;99863.31;5017768;28;19918;-50
2023/12/21 04:52:26;;;;;;;;;;;;;;;20.21;40.88;99855.41;5008390;28;19924;-49
2023/12/21 04:54:51;;;;;;;;;;;;;;;20.21;40.76;99871.59;5010757;28;19914;-50
2023/12/21 04:57:16;;;;;;;;;;;;;;;20.19;40.82;99871.81;5027604;28;20404;-50
2023/12/21 04:59:41;;;;;;;;;;;;;;;20.19;40.73;99870.97;5071816;28;20020;-50
2023/12/21 05:02:07;;;;;;;;;;;;;;;20.18;40.97;99880.94;5020546;28;19962;-47
2023/12/21 05:04:32;;;;;;;;;;;;;;;20.17;40.79;99883.81;5021908;28;20028;-48
2023/12/21 05:06:57;;;;;;;;;;;;;;;20.16;41.04;99884.88;5008697;28;19917;-48
2023/12/21 05:09:22;;;;;;;;;;;;;;;20.15;40.77;99878.66;5014659;28;20284;-49
2023/12/21 05:11:47;;;;;;;;;;;;;;;20.13;40.83;99859.09;5036485;28;20269;-49
2023/12/21 05:14:13;;;;;;;;;;;;;;;20.13;40.82;99855.56;5012916;28;19924;-46
2023/12/21 05:16:39;;;;;;;;;;;;;;;20.11;41.02;99826.09;5025536;28;19940;-50
2023/12/21 05:19:04;;;;;;;;;;;;;;;20.11;41.08;99814.50;5034402;28;19965;-51
2023/12/21 05:21:30;;;;;;;;;;;;;;;20.09;41.28;99820.09;5022567;28;19922;-47
2023/12/21 05:23:55;;;;;;;;;;;;;;;20.09;41.72;99827.34;5022032;28;20420;-49
2023/12/21 05:26:20;;;;;;;;;;;;;;;20.09;41.91;99820.09;5030045;28;19928;-47
2023/12/21 05:28:45;;;;;;;;;;;;;;;20.10;41.91;99812.84;5013960;28;19921;-50
2023/12/21 05:31:10;;;;;;;;;;;;;;;20.10;41.97;99799.34;5067979;28;19918;-50
2023/12/21 05:33:36;;;;;;;;;;;;;;;20.10;41.90;99799.34;5012835;28;19929;-50
2023/12/21 05:36:02;;;;;;;;;;;;;;;20.10;41.83;99802.03;5005589;28;19949;-46
2023/12/21 05:38:27;;;;;;;;;;;;;;;20.11;41.89;99811.78;5003140;28;20391;-47
2023/12/21 05:40:52;;;;;;;;;;;;;;;20.11;42.26;99812.63;5015452;28;19914;-51
2023/12/21 05:43:18;;;;;;;;;;;;;;;20.12;42.22;99819.66;4996694;28;19918;-46
2023/12/21 05:45:43;;;;;;;;;;;;;;;20.13;42.12;99809.69;4997097;28;19918;-47
2023/12/21 05:48:08;;;;;;;;;;;;;;;20.12;42.38;99814.28;4995840;28;19925;-46
2023/12/21 05:50:33;;;;;;;;;;;;;;;20.14;42.45;99803.28;4998714;28;19987;-49
2023/12/21 05:52:58;;;;;;;;;;;;;;;20.15;42.39;99815.75;5067657;28;19993;-48
2023/12/21 05:55:23;;;;;;;;;;;;;;;20.15;42.34;99808.47;5007646;28;19936;-49
2023/12/21 05:57:49;;;;;;;;;;;;;;;20.16;42.33;99798.50;5067054;28;19917;-50
2023/12/21 06:00:14;;;;;;;;;;;;;;;20.17;42.23;99786.66;5005799;28;19914;-49
2023/12/21 06:02:39;;;;;;;;;;;;;;;20.17;42.24;99795.59;4997253;28;19917;-51
2023/12/21 06:05:05;;;;;;;;;;;;;;;20.19;42.42;99785.44;4995969;28;20017;-50
2023/12/21 06:07:30;;;;;;;;;;;;;;;20.20;42.16;99760.09;5003463;28;20013;-47
2023/12/21 06:09:55;;;;;;;;;;;;;;;20.22;42.47;99768.03;5000508;28;19952;-46
2023/12/21 06:12:21;;;;;;;;;;;;;;;20.23;42.17;99758.88;5001068;28;19948;-48
2023/12/21 06:14:47;;;;;;;;;;;;;;;20.25;42.39;99751.41;4999712;28;19972;-48
2023/12/21 06:17:12;;;;;;;;;;;;;;;20.28;42.34;99731.28;4997036;28;19914;-47
2023/12/21 06:19:37;;;;;;;;;;;;;;;20.29;42.23;99733.75;4995897;28;19929;-46
2023/12/21 06:22:02;;;;;;;;;;;;;;;20.30;42.20;99732.72;5017614;28;19927;-45
2023/12/21 06:24:28;;;;;;;;;;;;;;;20.32;42.10;99735.22;4996071;28;20360;-46
2023/12/21 06:26:53;;;;;;;;;;;;;;;20.34;42.23;99717.75;5069186;28;19946;-48
2023/12/21 06:29:18;;;;;;;;;;;;;;;20.37;42.41;99713.84;5002674;28;19922;-45
2023/12/21 06:31:43;;;;;;;;;;;;;;;20.38;42.28;99704.69;5000073;28;19922;-45
2023/12/21 06:34:09;;;;;;;;;;;;;;;20.39;42.25;99691.00;5001092;28;19946;-48
2023/12/21 06:36:34;;;;;;;;;;;;;;;20.41;42.24;99694.31;4999070;28;19968;-47
2023/12/21 06:38:59;;;;;;;;;;;;;;;20.44;42.19;99676.88;5001191;28;19932;-47
2023/12/21 06:41:24;;;;;;;;;;;;;;;20.45;42.24;99675.81;5003654;28;20007;-51
2023/12/21 06:43:49;;;;;;;;;;;;;;;20.45;42.12;99671.25;5004213;28;19922;-47
2023/12/21 06:46:15;;;;;;;;;;;;;;;20.49;42.21;99681.69;4999813;28;19925;-47
2023/12/21 06:48:41;;;;;;;;;;;;;;;20.50;41.81;99661.72;5065923;28;19929;-45
2023/12/21 06:51:06;;;;;;;;;;;;;;;20.51;42.12;99648.00;4998536;28;19925;-46
2023/12/21 06:53:32;;;;;;;;;;;;;;;20.52;42.00;99630.78;4995706;28;19925;-45
2023/12/21 06:55:57;;;;;;;;;;;;;;;20.55;42.07;99627.66;5001868;28;19961;-45
2023/12/21 06:58:24;;;;;;;;;;;;;;;20.57;41.97;99622.06;5016193;28;20331;-46
2023/12/21 07:00:49;;;;;;;;;;;;;;;20.59;41.93;99614.56;5019615;28;19917;-47
2023/12/21 07:03:14;;;;;;;;;;;;;;;20.60;41.95;99617.06;5007925;28;20261;-49
2023/12/21 07:05:40;;;;;;;;;;;;;;;20.61;41.90;99607.09;5012613;28;19913;-49
2023/12/21 07:08:05;;;;;;;;;;;;;;;20.64;41.52;99602.06;5017890;28;20316;-49
2023/12/21 07:10:30;;;;;;;;;;;;;;;20.65;41.81;99595.66;5000987;28;19921;-50
2023/12/21 07:12:56;;;;;;;;;;;;;;;20.68;41.63;99595.22;5021270;28;19949;-49
2023/12/21 07:15:21;;;;;;;;;;;;;;;20.72;41.60;99595.63;5019970;28;19912;-48
2023/12/21 07:17:46;;;;;;;;;;;;;;;20.72;41.22;99601.84;5085924;28;19989;-48
2023/12/21 07:20:11;;;;;;;;;;;;;;;20.75;41.54;99586.28;5003715;28;20009;-50
2023/12/21 07:22:37;;;;;;;;;;;;;;;20.76;41.40;99594.16;5020228;28;19920;-50
2023/12/21 07:25:02;;;;;;;;;;;;;;;20.78;41.46;99583.97;5012635;28;19914;-51
2023/12/21 07:27:27;;;;;;;;;;;;;;;20.81;41.37;99571.91;5003162;28;19961;-45
2023/12/21 07:29:52;;;;;;;;;;;;;;;20.83;41.28;99573.38;5017600;28;19925;-47
2023/12/21 07:32:17;;;;;;;;;;;;;;;20.85;41.40;99562.34;5027676;28;19924;-47
2023/12/21 07:34:43;;;;;;;;;;;;;;;20.87;41.06;99557.56;5089306;28;19943;-47
2023/12/21 07:37:08;;;;;;;;;;;;;;;20.89;41.15;99537.38;5032763;28;19947;-47
2023/12/21 07:39:33;;;;;;;;;;;;;;;20.92;41.13;99560.44;5029477;28;20277;-49
2023/12/21 07:41:59;;;;;;;;;;;;;;;20.93;40.87;99557.50;5013936;28;19935;-49
2023/12/21 07:44:24;;;;;;;;;;;;;;;20.95;40.73;99587.03;5030652;28;19914;-44
2023/12/21 07:46:49;;;;;;;;;;;;;;;20.96;40.97;99564.38;5046873;28;19921;-47
2023/12/21 07:49:14;;;;;;;;;;;;;;;20.96;40.88;99559.78;5023625;28;19956;-45
2023/12/21 07:51:39;;;;;;;;;;;;;;;20.97;40.63;99574.97;5038932;28;19913;-49
2023/12/21 07:54:04;;;;;;;;;;;;;;;20.97;41.00;99561.44;5027367;28;20422;-45
2023/12/21 07:56:30;;;;;;;;;;;;;;;20.99;40.74;99566.66;5012194;28;19921;-46
2023/12/21 07:58:55;;;;;;;;;;;;;;;20.99;40.87;99555.03;5017037;28;19921;-49
2023/12/21 08:01:20;;;;;;;;;;;;;;;21.01;40.58;99551.03;5045761;28;19943;-49
2023/12/21 08:03:45;;;;;;;;;;;;;;;21.01;40.52;99553.75;5027606;28;19920;-48
2023/12/21 08:06:19;;;;;;;;;;;;;;;21.02;40.84;99557.28;5023956;28;19916;-48
2023/12/21 08:08:44;;;;;;;;;;;;;;;21.03;40.50;99557.06;5037569;28;19917;-48
2023/12/21 08:11:09;;;;;;;;;;;;;;;21.04;40.75;99547.09;5020534;28;19918;-47
2023/12/21 08:13:34;;;;;;;;;;;;;;;21.04;40.67;99547.91;5017130;28;20319;-49
2023/12/21 08:15:59;;;;;;;;;;;;;;;21.08;40.55;99537.50;5019734;28;19953;-48
2023/12/21 08:18:24;;;;;;;;;;;;;;;21.09;40.41;99536.47;5034233;28;20097;-47
2023/12/21 08:20:50;;;;;;;;;;;;;;;21.12;40.53;99528.75;5009866;28;19917;-46
2023/12/21 08:23:15;;;;;;;;;;;;;;;21.14;40.57;99525.81;5027274;28;19925;-47
2023/12/21 08:25:40;;;;;;;;;;;;;;;21.15;40.25;99514.81;5042395;28;19927;-49
2023/12/21 08:28:05;;;;;;;;;;;;;;;21.15;40.35;99528.31;5006228;28;19917;-45
2023/12/21 08:30:30;;;;;;;;;;;;;;;21.18;40.56;99505.41;5031247;28;20183;-46
2023/12/21 08:32:56;;;;;;;;;;;;;;;21.20;40.23;99497.94;5035484;28;19916;-49
2023/12/21 08:35:21;;;;;;;;;;;;;;;21.20;40.33;99506.88;5026364;28;19917;-49
2023/12/21 08:37:46;;;;;;;;;;;;;;;21.20;40.36;99498.75;5022260;28;19925;-46
2023/12/21 08:40:11;;;;;;;;;;;;;;;21.21;40.59;99505.81;5023916;28;20008;-46
2023/12/21 08:42:37;;;;;;;;;;;;;;;21.21;40.47;99491.47;5060717;28;20009;-47
2023/12/21 08:45:02;;;;;;;;;;;;;;;21.23;40.45;99486.66;5018685;28;19923;-44
2023/12/21 08:47:27;;;;;;;;;;;;;;;21.25;40.52;99484.59;5036988;28;20367;-49
2023/12/21 08:49:53;;;;;;;;;;;;;;;21.25;40.38;99481.88;5015950;28;19920;-45
2023/12/21 08:52:18;;;;;;;;;;;;;;;21.27;40.33;99478.97;5014268;28;19918;-48
2023/12/21 08:54:43;;;;;;;;;;;;;;;21.28;40.46;99462.53;5029082;28;19922;-46
2023/12/21 08:57:10;;;;;;;;;;;;;;;21.30;40.42;99455.03;5025957;28;19945;-48
2023/12/21 08:59:35;;;;;;;;;;;;;;;21.31;40.53;99453.97;5050902;28;20382;-47
2023/12/21 09:02:01;;;;;;;;;;;;;;;21.32;40.12;99442.13;5034891;28;19925;-46
2023/12/21 09:04:26;;;;;;;;;;;;;;;21.34;40.20;99450.88;5025541;28;19941;-46
2023/12/21 09:06:51;;;;;;;;;;;;;;;21.36;40.04;99439.81;5014605;28;20426;-46
2023/12/21 09:09:16;;;;;;;;;;;;;;;21.35;40.20;99438.16;5016493;28;19922;-45
2023/12/21 09:11:42;;;;;;;;;;;;;;;21.36;40.06;99440.63;5035995;28;20428;-44
2023/12/21 09:14:07;;;;;;;;;;;;;;;21.38;40.31;99432.34;5047844;28;19929;-48
2023/12/21 09:16:32;;;;;;;;;;;;;;;21.41;40.34;99448.13;5057434;28;19928;-44
2023/12/21 09:18:57;;;;;;;;;;;;;;;21.41;40.11;99427.31;5026271;28;19918;-48
2023/12/21 09:21:23;;;;;;;;;;;;;;;21.43;40.32;99436.00;5011922;28;20366;-47
2023/12/21 09:23:48;;;;;;;;;;;;;;;21.44;40.40;99416.03;5010820;28;19964;-48
2023/12/21 09:26:13;;;;;;;;;;;;;;;21.45;40.29;99433.09;5086727;28;19913;-47
2023/12/21 09:28:39;;;;;;;;;;;;;;;21.46;40.33;99413.94;5042708;28;20281;-48
2023/12/21 09:31:05;;;;;;;;;;;;;;;21.48;40.10;99429.13;5085037;28;19916;-47
2023/12/21 09:33:32;;;;;;;;;;;;;;;21.49;40.30;99426.19;5018454;28;19917;-46
2023/12/21 09:35:58;;;;;;;;;;;;;;;21.52;40.14;99400.59;5016646;28;19921;-46
2023/12/21 09:38:23;;;;;;;;;;;;;;;21.54;40.07;99406.63;5012526;28;19920;-44
2023/12/21 09:40:48;;;;;;;;;;;;;;;21.55;39.96;99400.97;5036657;28;19926;-44
2023/12/21 09:43:16;;;;;;;;;;;;;;;21.57;40.10;99403.44;5033089;28;19918;-45
2023/12/21 09:45:42;;;;;;;;;;;;;;;21.58;39.92;99402.38;5069421;28;19950;-47
2023/12/21 09:48:07;;;;;;;;;;;;;;;21.61;40.17;99388.44;5083119;28;19917;-47
2023/12/21 09:50:32;;;;;;;;;;;;;;;21.60;39.98;99386.78;5067073;28;19951;-45
2023/12/21 09:52:57;;;;;;;;;;;;;;;21.61;39.91;99394.66;5021446;28;19917;-45
2023/12/21 09:55:22;;;;;;;;;;;;;;;21.63;39.84;99378.22;5067794;28;19918;-45
2023/12/21 09:57:47;;;;;;;;;;;;;;;21.65;39.88;99389.63;5070385;28;19922;-47
2023/12/21 10:00:13;;;;;;;;;;;;;;;21.70;39.80;99392.50;5028397;28;19956;-46
2023/12/21 10:02:38;;;;;;;;;;;;;;;21.71;39.99;99386.06;5009153;28;19917;-45
2023/12/21 10:05:04;;;;;;;;;;;;;;;21.73;39.83;99394.75;5060218;28;19914;-50
2023/12/21 10:07:30;;;;;;;;;;;;;;;21.76;39.73;99398.91;5006954;28;19943;-43
2023/12/21 10:09:55;;;;;;;;;;;;;;;21.76;39.84;99397.03;5002347;28;19939;-45
2023/12/21 10:12:20;;;;;;;;;;;;;;;21.79;39.82;99372.25;5021884;28;19918;-45
2023/12/21 10:14:55;;;;;;;;;;;;;;;21.80;39.65;99371.19;5003725;28;19967;-46
2023/12/21 10:17:20;;;;;;;;;;;;;;;21.81;39.57;99367.41;4999206;28;19922;-44
2023/12/21 10:19:45;;;;;;;;;;;;;;;21.84;39.62;99379.69;4995419;28;20372;-45
2023/12/21 10:22:11;;;;;;;;;;;;;;;21.85;39.67;99356.97;5002729;28;19917;-44
2023/12/21 10:24:36;;;;;;;;;;;;;;;21.86;39.81;99361.31;5000598;28;19947;-45
2023/12/21 10:27:03;;;;;;;;;;;;;;;21.87;39.83;99362.97;5012032;28;19929;-45
2023/12/21 10:29:28;;;;;;;;;;;;;;;21.87;39.59;99352.16;5008223;28;19939;-44
2023/12/21 10:31:53;;;;;;;;;;;;;;;21.90;39.69;99370.66;5068298;28;19914;-44
2023/12/21 10:34:18;;;;;;;;;;;;;;;21.92;39.63;99355.84;5028868;28;20519;-44
2023/12/21 10:36:44;;;;;;;;;;;;;;;21.93;39.59;99333.13;5034940;28;19923;-44
2023/12/21 10:39:10;;;;;;;;;;;;;;;21.95;39.38;99347.25;5079804;28;19917;-45
2023/12/21 10:41:35;;;;;;;;;;;;;;;21.98;39.84;99340.56;5047229;28;19970;-43
2023/12/21 10:44:01;;;;;;;;;;;;;;;22.02;39.53;99357.19;5040170;28;20288;-44
2023/12/21 10:46:30;;;;;;;;;;;;;;;22.04;39.42;99352.38;5009803;28;19967;-44
2023/12/21 10:48:58;;;;;;;;;;;;;;;22.07;39.49;99362.75;5013088;28;19918;-48
2023/12/21 10:51:24;;;;;;;;;;;;;;;22.08;39.42;99338.16;5017452;28;19977;-47
2023/12/21 10:53:49;;;;;;;;;;;;;;;22.10;39.54;99332.53;5057813;28;19937;-49
2023/12/21 10:56:14;;;;;;;;;;;;;;;22.11;39.16;99328.75;5064376;28;19921;-48
2023/12/21 10:58:39;;;;;;;;;;;;;;;22.14;39.50;99325.63;5067161;28;19925;-49
2023/12/21 11:01:06;;;;;;;;;;;;;;;22.16;39.35;99323.50;5017257;28;19918;-46
2023/12/21 11:03:31;;;;;;;;;;;;;;;22.17;39.44;99334.13;5024762;28;20282;-51
2023/12/21 11:05:56;;;;;;;;;;;;;;;22.17;39.42;99315.19;5071695;28;19953;-48
2023/12/21 11:08:22;;;;;;;;;;;;;;;22.20;39.68;99330.13;5064775;28;19924;-47
2023/12/21 11:10:47;;;;;;;;;;;;;;;22.18;39.54;99316.81;5078038;28;19966;-50
2023/12/21 11:13:12;;;;;;;;;;;;;;;22.19;39.65;99318.47;5046707;28;19916;-47
2023/12/21 11:15:38;;;;;;;;;;;;;;;22.19;39.70;99318.47;5026391;28;19920;-45
2023/12/21 11:18:07;;;;;;;;;;;;;;;22.23;39.52;99309.91;5014001;28;19917;-46
2023/12/21 11:20:34;;;;;;;;;;;;;;;22.26;39.63;99296.75;5069527;28;20000;-47
2023/12/21 11:23:03;;;;;;;;;;;;;;;22.27;39.24;99301.09;5016030;28;19948;-49
2023/12/21 11:25:28;;;;;;;;;;;;;;;22.31;39.44;99302.28;5064017;28;20195;-47
2023/12/21 11:27:53;;;;;;;;;;;;;;;22.32;39.34;99268.72;5028278;28;19912;-47
2023/12/21 11:30:20;;;;;;;;;;;;;;;22.35;39.36;99310.78;5035134;28;19984;-47
2023/12/21 11:32:46;;;;;;;;;;;;;;;22.38;39.04;99318.41;5008065;28;19925;-47
2023/12/21 11:35:21;;;;;;;;;;;;;;;22.40;39.10;99324.44;5008634;28;19914;-46
2023/12/21 11:37:50;;;;;;;;;;;;;;;22.42;39.00;99290.66;5033664;28;19918;-47
2023/12/21 11:40:16;;;;;;;;;;;;;;;22.44;39.33;99310.22;5068118;28;19914;-45
2023/12/21 11:42:44;;;;;;;;;;;;;;;22.44;39.27;99312.91;5033063;28;19925;-48
2023/12/21 11:45:09;;;;;;;;;;;;;;;22.47;39.13;99287.25;5048738;28;19965;-48
2023/12/21 11:47:34;;;;;;;;;;;;;;;22.49;39.01;99259.94;5013512;28;19964;-45
2023/12/21 11:50:18;;;;;;;;;;;;;;;22.51;39.19;99263.22;5015505;28;19925;-44
2023/12/21 11:52:43;;;;;;;;;;;;;;;22.53;39.18;99289.03;5033321;28;19924;-45
2023/12/21 11:55:09;;;;;;;;;;;;;;;22.54;39.07;99279.84;5029520;28;19952;-46
2023/12/21 11:57:39;;;;;;;;;;;;;;;22.53;38.79;99278.22;5032079;28;19917;-49
2023/12/21 12:00:08;;;;;;;;;;;;;;;22.55;38.93;99281.50;5018838;28;19922;-45
2023/12/21 12:02:36;;;;;;;;;;;;;;;22.55;39.03;99277.97;5020314;28;20012;-47
2023/12/21 12:05:20;;;;;;;;;;;;;;;22.56;38.98;99279.63;5028764;28;19924;-48
2023/12/21 12:07:45;;;;;;;;;;;;;;;22.56;39.10;99260.69;5034621;28;20431;-50
2023/12/21 12:10:10;;;;;;;;;;;;;;;22.55;39.03;99254.41;5027145;28;19920;-47
2023/12/21 12:12:35;;;;;;;;;;;;;;;22.56;38.89;99264.22;5009191;28;19945;-48
2023/12/21 12:15:00;;;;;;;;;;;;;;;22.58;38.72;99269.38;5023014;28;19936;-47
2023/12/21 12:17:26;;;;;;;;;;;;;;;22.60;38.94;99267.25;5046968;28;19928;-46
2023/12/21 12:19:54;;;;;;;;;;;;;;;22.61;38.67;99234.53;5053214;28;20260;-48
2023/12/21 12:22:19;;;;;;;;;;;;;;;22.61;38.90;99269.75;5054454;28;19925;-46
2023/12/21 12:24:46;;;;;;;;;;;;;;;22.62;38.57;99257.84;5025912;28;19914;-46
2023/12/21 12:27:12;;;;;;;;;;;;;;;22.65;38.69;99253.84;5017232;28;19952;-49
2023/12/21 12:29:37;;;;;;;;;;;;;;;22.66;38.58;99221.09;5014556;28;19956;-48
2023/12/21 12:32:02;;;;;;;;;;;;;;;22.67;38.83;99227.34;5067900;28;19923;-46
2023/12/21 12:34:27;;;;;;;;;;;;;;;22.69;38.66;99227.94;5061006;28;19917;-48